createdAt,value
2022-10-20T00:00:15.464Z,1.55
2022-10-20T00:01:19.970Z,1.53
2022-10-20T00:02:23.761Z,1.50
2022-10-20T00:03:28.533Z,1.49
2022-10-20T00:04:32.350Z,1.48
2022-10-20T00:05:35.097Z,1.46
2022-10-20T00:06:38.801Z,1.44
2022-10-20T00:07:41.552Z,1.42
2022-10-20T00:08:46.044Z,1.39
2022-10-20T00:09:48.808Z,1.36
2022-10-20T00:10:56.047Z,1.33
2022-10-20T00:11:58.844Z,1.30
2022-10-20T00:13:02.632Z,1.28
2022-10-20T00:14:05.927Z,1.27
2022-10-20T00:15:10.206Z,1.26
2022-10-20T00:16:13.754Z,1.24
2022-10-20T00:17:17.605Z,1.23
2022-10-20T00:18:21.065Z,1.22
2022-10-20T00:19:26.165Z,1.20
2022-10-20T00:20:28.851Z,1.17
2022-10-20T00:21:33.602Z,1.14
2022-10-20T00:22:36.773Z,1.11
2022-10-20T00:23:40.642Z,1.10
2022-10-20T00:24:43.542Z,1.08
2022-10-20T00:25:47.383Z,1.07
2022-10-20T00:26:50.103Z,1.06
2022-10-20T00:27:53.894Z,1.06
2022-10-20T00:28:56.931Z,1.04
2022-10-20T00:30:00.723Z,1.03
2022-10-20T00:31:03.802Z,1.02
2022-10-20T00:32:07.534Z,1.00
2022-10-20T00:33:10.203Z,0.98
2022-10-20T00:34:13.934Z,0.95
2022-10-20T00:35:18.175Z,0.93
2022-10-20T00:36:23.736Z,0.90
2022-10-20T00:37:26.473Z,0.87
2022-10-20T00:38:30.334Z,0.84
2022-10-20T00:39:33.170Z,0.83
2022-10-20T00:40:36.925Z,0.81
2022-10-20T00:41:39.617Z,0.80
2022-10-20T00:42:45.884Z,0.78
2022-10-20T00:43:51.246Z,0.75
2022-10-20T00:44:57.073Z,0.73
2022-10-20T00:45:59.751Z,0.71
2022-10-20T00:47:03.527Z,0.70
2022-10-20T00:48:09.053Z,0.68
2022-10-20T00:49:16.842Z,0.67
2022-10-20T00:50:23.893Z,0.68
2022-10-20T00:51:29.763Z,0.67
2022-10-20T00:52:32.780Z,0.65
2022-10-20T00:53:36.868Z,0.63
2022-10-20T00:54:39.671Z,0.60
2022-10-20T00:55:44.555Z,0.59
2022-10-20T00:56:49.093Z,0.60
2022-10-20T00:57:53.895Z,0.61
2022-10-20T00:58:56.773Z,0.63
2022-10-20T01:00:00.750Z,0.64
2022-10-20T01:01:03.470Z,0.66
2022-10-20T01:02:08.959Z,0.68
2022-10-20T01:03:15.022Z,0.68
2022-10-20T01:04:19.015Z,0.68
2022-10-20T01:05:23.690Z,0.67
2022-10-20T01:06:27.492Z,0.65
2022-10-20T01:07:30.182Z,0.63
2022-10-20T01:08:34.011Z,0.61
2022-10-20T01:09:39.173Z,0.62
2022-10-20T01:10:49.112Z,0.60
2022-10-20T01:11:56.995Z,0.59
2022-10-20T01:13:04.961Z,0.59
2022-10-20T01:14:16.893Z,0.57
2022-10-20T01:15:26.506Z,0.54
2022-10-20T01:16:37.731Z,0.53
2022-10-20T01:17:45.582Z,0.50
2022-10-20T01:18:56.512Z,0.49
2022-10-20T01:20:29.195Z,0.45
2022-10-20T01:21:44.830Z,0.41
2022-10-20T01:23:23.712Z,0.40
2022-10-20T01:24:48.137Z,0.37
2022-10-20T01:26:08.143Z,0.34
2022-10-20T01:27:27.385Z,0.29
2022-10-20T01:28:36.002Z,0.27
2022-10-20T01:29:44.140Z,0.23
2022-10-20T01:30:49.749Z,0.19
2022-10-20T01:32:02.273Z,0.16
2022-10-20T01:33:13.220Z,0.12
2022-10-20T01:34:23.093Z,0.11
2022-10-20T01:35:38.524Z,0.07
2022-10-20T01:36:46.575Z,0.03
2022-10-20T01:37:54.619Z,-0.01
2022-10-20T01:39:03.420Z,-0.04
2022-10-20T01:40:12.753Z,-0.05
2022-10-20T01:41:20.323Z,-0.08
2022-10-20T01:42:26.438Z,-0.09
2022-10-20T01:43:34.402Z,-0.09
2022-10-20T01:44:37.640Z,-0.09
2022-10-20T01:45:44.591Z,-0.10
2022-10-20T01:46:47.533Z,-0.10
2022-10-20T01:47:52.024Z,-0.11
2022-10-20T01:48:55.222Z,-0.13
2022-10-20T01:49:59.861Z,-0.14
2022-10-20T01:51:03.812Z,-0.16
2022-10-20T01:52:07.573Z,-0.16
2022-10-20T01:53:11.110Z,-0.16
2022-10-20T01:54:23.420Z,-0.15
2022-10-20T01:55:26.402Z,-0.17
2022-10-20T01:56:38.173Z,-0.19
2022-10-20T01:57:52.662Z,-0.20
2022-10-20T01:59:15.672Z,-0.22
2022-10-20T02:00:19.043Z,-0.24
2022-10-20T02:01:29.101Z,-0.24
2022-10-20T02:02:43.703Z,-0.27
2022-10-20T02:03:53.673Z,-0.31
2022-10-20T02:05:07.882Z,-0.32
2022-10-20T02:06:19.342Z,-0.35
2022-10-20T02:07:25.700Z,-0.36
2022-10-20T02:08:33.536Z,-0.37
2022-10-20T02:09:40.707Z,-0.34
2022-10-20T02:10:47.278Z,-0.32
2022-10-20T02:11:54.484Z,-0.29
2022-10-20T02:13:02.320Z,-0.29
2022-10-20T02:14:06.731Z,-0.28
2022-10-20T02:15:11.331Z,-0.27
2022-10-20T02:16:16.846Z,-0.26
2022-10-20T02:17:21.682Z,-0.25
2022-10-20T02:18:26.743Z,-0.22
2022-10-20T02:19:39.332Z,-0.19
2022-10-20T02:20:44.424Z,-0.15
2022-10-20T02:21:48.475Z,-0.09
2022-10-20T02:22:51.551Z,-0.04
2022-10-20T02:23:56.491Z,0.01
2022-10-20T02:25:00.261Z,0.04
2022-10-20T02:26:05.977Z,0.09
2022-10-20T02:27:11.669Z,0.12
2022-10-20T02:28:17.517Z,0.17
2022-10-20T02:29:23.375Z,0.21
2022-10-20T02:30:27.193Z,0.24
2022-10-20T02:31:30.072Z,0.24
2022-10-20T02:32:35.913Z,0.27
2022-10-20T02:33:39.044Z,0.29
2022-10-20T02:34:43.521Z,0.30
2022-10-20T02:35:50.972Z,0.30
2022-10-20T02:36:57.193Z,0.29
2022-10-20T02:38:00.163Z,0.29
2022-10-20T02:39:03.873Z,0.28
2022-10-20T02:40:07.634Z,0.28
2022-10-20T02:41:11.532Z,0.28
2022-10-20T02:42:14.282Z,0.29
2022-10-20T02:43:19.442Z,0.30
2022-10-20T02:44:22.998Z,0.29
2022-10-20T02:45:26.789Z,0.30
2022-10-20T02:46:29.701Z,0.30
2022-10-20T02:47:33.640Z,0.31
2022-10-20T02:48:38.453Z,0.31
2022-10-20T02:49:42.123Z,0.30
2022-10-20T02:50:44.793Z,0.30
2022-10-20T02:51:48.822Z,0.32
2022-10-20T02:52:51.576Z,0.32
2022-10-20T02:53:55.944Z,0.35
2022-10-20T02:54:58.622Z,0.37
2022-10-20T02:56:02.617Z,0.37
2022-10-20T02:57:05.331Z,0.38
2022-10-20T02:58:09.100Z,0.37
2022-10-20T02:59:15.760Z,0.38
2022-10-20T03:00:19.548Z,0.38
2022-10-20T03:01:22.732Z,0.39
2022-10-20T03:02:26.720Z,0.39
2022-10-20T03:03:29.439Z,0.38
2022-10-20T03:04:33.129Z,0.38
2022-10-20T03:05:40.264Z,0.37
2022-10-20T03:06:44.020Z,0.35
2022-10-20T03:07:46.712Z,0.34
2022-10-20T03:08:50.385Z,0.33
2022-10-20T03:09:53.095Z,0.31
2022-10-20T03:10:56.785Z,0.30
2022-10-20T03:11:59.468Z,0.29
2022-10-20T03:13:03.204Z,0.26
2022-10-20T03:14:05.853Z,0.23
2022-10-20T03:15:11.903Z,0.20
2022-10-20T03:16:14.541Z,0.18
2022-10-20T03:17:18.281Z,0.17
2022-10-20T03:18:20.889Z,0.16
2022-10-20T03:19:24.672Z,0.13
2022-10-20T03:20:27.453Z,0.09
2022-10-20T03:21:31.172Z,0.06
2022-10-20T03:22:33.862Z,0.01
2022-10-20T03:23:37.556Z,-0.01
2022-10-20T03:24:40.329Z,-0.04
2022-10-20T03:25:44.094Z,-0.06
2022-10-20T03:26:46.828Z,-0.08
2022-10-20T03:27:50.577Z,-0.10
2022-10-20T03:28:53.223Z,-0.13
2022-10-20T03:29:56.950Z,-0.17
2022-10-20T03:31:01.032Z,-0.23
2022-10-20T03:32:04.772Z,-0.31
2022-10-20T03:33:07.611Z,-0.36
2022-10-20T03:34:12.941Z,-0.41
2022-10-20T03:35:15.813Z,-0.48
2022-10-20T03:36:19.555Z,-0.52
2022-10-20T03:37:22.236Z,-0.58
2022-10-20T03:38:26.331Z,-0.63
2022-10-20T03:39:29.048Z,-0.67
2022-10-20T03:40:32.969Z,-0.70
2022-10-20T03:41:35.652Z,-0.73
2022-10-20T03:42:39.496Z,-0.75
2022-10-20T03:43:42.382Z,-0.77
2022-10-20T03:44:46.341Z,-0.81
2022-10-20T03:45:49.185Z,-0.84
2022-10-20T03:46:54.291Z,-0.86
2022-10-20T03:47:57.029Z,-0.86
2022-10-20T03:49:00.820Z,-0.89
2022-10-20T03:51:10.039Z,-0.91
2022-10-20T03:52:12.736Z,-0.93
2022-10-20T03:53:16.417Z,-0.94
2022-10-20T03:54:19.091Z,-0.95
2022-10-20T03:55:22.916Z,-0.96
2022-10-20T03:56:25.661Z,-0.96
2022-10-20T03:57:29.442Z,-0.97
2022-10-20T03:58:32.131Z,-0.97
2022-10-20T03:59:35.883Z,-0.96
2022-10-20T04:00:38.679Z,-0.96
2022-10-20T04:01:45.327Z,-0.96
2022-10-20T04:02:49.590Z,-0.96
2022-10-20T04:03:53.349Z,-0.96
2022-10-20T04:04:55.969Z,-0.95
2022-10-20T04:05:59.751Z,-0.95
2022-10-20T04:07:02.584Z,-0.97
2022-10-20T04:08:06.621Z,-1.00
2022-10-20T04:09:09.456Z,-1.01
2022-10-20T04:10:17.000Z,-1.02
2022-10-20T04:11:19.570Z,-1.04
2022-10-20T04:12:23.620Z,-1.05
2022-10-20T04:13:26.348Z,-1.07
2022-10-20T04:14:30.153Z,-1.09
2022-10-20T04:15:32.826Z,-1.10
2022-10-20T04:16:36.542Z,-1.13
2022-10-20T04:18:45.209Z,-1.15
2022-10-20T04:19:48.001Z,-1.17
2022-10-20T04:20:51.849Z,-1.18
2022-10-20T04:21:54.634Z,-1.19
2022-10-20T04:22:58.344Z,-1.19
2022-10-20T04:24:01.012Z,-1.19
2022-10-20T04:25:05.127Z,-1.20
2022-10-20T04:26:11.319Z,-1.21
2022-10-20T04:27:15.036Z,-1.21
2022-10-20T04:28:19.111Z,-1.22
2022-10-20T04:29:22.860Z,-1.21
2022-10-20T04:30:25.550Z,-1.20
2022-10-20T04:31:29.281Z,-1.22
2022-10-20T04:32:32.009Z,-1.22
2022-10-20T04:33:36.002Z,-1.22
2022-10-20T04:34:40.230Z,-1.25
2022-10-20T04:35:44.209Z,-1.27
2022-10-20T04:36:46.980Z,-1.27
2022-10-20T04:37:50.633Z,-1.28
2022-10-20T04:38:53.339Z,-1.29
2022-10-20T04:39:57.940Z,-1.29
2022-10-20T04:41:04.088Z,-1.32
2022-10-20T04:42:08.119Z,-1.33
2022-10-20T04:43:10.929Z,-1.36
2022-10-20T04:44:14.630Z,-1.37
2022-10-20T04:45:17.490Z,-1.38
2022-10-20T04:46:21.669Z,-1.40
2022-10-20T04:47:24.469Z,-1.41
2022-10-20T04:48:28.348Z,-1.41
2022-10-20T04:49:32.130Z,-1.43
2022-10-20T04:50:36.270Z,-1.43
2022-10-20T04:51:45.953Z,-1.46
2022-10-20T04:52:48.654Z,-1.48
2022-10-20T04:53:52.564Z,-1.49
2022-10-20T04:54:55.343Z,-1.51
2022-10-20T04:55:59.342Z,-1.52
2022-10-20T04:57:02.121Z,-1.54
2022-10-20T04:58:05.871Z,-1.57
2022-10-20T04:59:12.645Z,-1.59
2022-10-20T05:00:17.709Z,-1.61
2022-10-20T05:01:22.217Z,-1.62
2022-10-20T05:02:26.128Z,-1.62
2022-10-20T05:03:28.910Z,-1.63
2022-10-20T05:04:32.649Z,-1.62
2022-10-20T05:05:36.741Z,-1.63
2022-10-20T05:06:40.638Z,-1.64
2022-10-20T05:07:43.444Z,-1.67
2022-10-20T05:08:48.941Z,-1.70
2022-10-20T05:09:51.619Z,-1.71
2022-10-20T05:10:55.491Z,-1.70
2022-10-20T05:11:58.300Z,-1.70
2022-10-20T05:13:02.098Z,-1.69
2022-10-20T05:14:05.007Z,-1.68
2022-10-20T05:15:09.670Z,-1.68
2022-10-20T05:16:14.065Z,-1.68
2022-10-20T05:17:16.745Z,-1.68
2022-10-20T05:18:20.430Z,-1.69
2022-10-20T05:19:23.309Z,-1.70
2022-10-20T05:20:27.132Z,-1.71
2022-10-20T05:21:32.424Z,-1.69
2022-10-20T05:22:36.429Z,-1.69
2022-10-20T05:23:40.330Z,-1.68
2022-10-20T05:24:44.078Z,-1.68
2022-10-20T05:25:46.866Z,-1.67
2022-10-20T05:26:51.221Z,-1.68
2022-10-20T05:27:53.852Z,-1.66
2022-10-20T05:28:57.551Z,-1.67
2022-10-20T05:30:02.520Z,-1.67
2022-10-20T05:31:09.931Z,-1.68
2022-10-20T05:32:14.011Z,-1.68
2022-10-20T05:33:16.618Z,-1.68
2022-10-20T05:34:20.940Z,-1.69
2022-10-20T05:35:23.750Z,-1.70
2022-10-20T05:36:28.459Z,-1.71
2022-10-20T05:37:32.499Z,-1.71
2022-10-20T05:38:37.019Z,-1.70
2022-10-20T05:39:40.753Z,-1.61
2022-10-20T05:40:43.431Z,-1.48
2022-10-20T05:41:47.111Z,-1.31
2022-10-20T05:42:50.283Z,-1.18
2022-10-20T05:43:57.389Z,-1.06
2022-10-20T05:45:00.272Z,-0.93
2022-10-20T05:46:04.200Z,-0.85
2022-10-20T05:47:08.058Z,-0.84
2022-10-20T05:48:10.710Z,-0.86
2022-10-20T05:49:16.873Z,-0.84
2022-10-20T05:50:19.630Z,-0.79
2022-10-20T05:51:25.564Z,-0.76
2022-10-20T05:52:29.339Z,-0.74
2022-10-20T05:53:33.529Z,-0.72
2022-10-20T05:54:37.301Z,-0.69
2022-10-20T05:55:39.932Z,-0.66
2022-10-20T05:56:43.701Z,-0.65
2022-10-20T05:57:46.480Z,-0.61
2022-10-20T05:58:50.690Z,-0.51
2022-10-20T05:59:53.361Z,-0.42
2022-10-20T06:01:06.622Z,-0.32
2022-10-20T06:02:11.122Z,-0.20
2022-10-20T06:03:16.153Z,-0.10
2022-10-20T06:04:24.738Z,0.01
2022-10-20T06:05:27.727Z,0.12
2022-10-20T06:06:32.981Z,0.23
2022-10-20T06:07:35.963Z,0.35
2022-10-20T06:08:41.184Z,0.48
2022-10-20T06:09:45.078Z,0.61
2022-10-20T06:10:47.787Z,0.77
2022-10-20T06:11:52.579Z,0.95
2022-10-20T06:12:55.442Z,1.14
2022-10-20T06:13:59.147Z,1.29
2022-10-20T06:15:02.923Z,1.41
2022-10-20T06:16:06.829Z,1.54
2022-10-20T06:17:11.079Z,1.67
2022-10-20T06:18:13.913Z,1.80
2022-10-20T06:19:17.640Z,1.92
2022-10-20T06:20:20.379Z,2.03
2022-10-20T06:21:26.562Z,2.15
2022-10-20T06:22:29.183Z,2.25
2022-10-20T06:23:32.922Z,2.37
2022-10-20T06:24:38.265Z,2.50
2022-10-20T06:25:41.008Z,2.62
2022-10-20T06:26:46.082Z,2.71
2022-10-20T06:27:49.799Z,2.82
2022-10-20T06:28:59.777Z,2.92
2022-10-20T06:30:07.604Z,2.97
2022-10-20T06:31:14.879Z,3.03
2022-10-20T06:32:19.073Z,3.08
2022-10-20T06:33:21.751Z,3.12
2022-10-20T06:34:26.699Z,3.20
2022-10-20T06:35:31.805Z,3.29
2022-10-20T06:36:36.977Z,3.39
2022-10-20T06:37:39.723Z,3.47
2022-10-20T06:38:43.732Z,3.51
2022-10-20T06:39:49.161Z,3.58
2022-10-20T06:40:51.847Z,3.66
2022-10-20T06:41:56.109Z,3.81
2022-10-20T06:42:58.961Z,3.95
2022-10-20T06:44:02.798Z,4.05
2022-10-20T06:45:06.460Z,4.16
2022-10-20T06:46:13.623Z,4.27
2022-10-20T06:47:17.410Z,4.39
2022-10-20T06:48:20.553Z,4.51
2022-10-20T06:49:24.801Z,4.61
2022-10-20T06:50:27.930Z,4.73
2022-10-20T06:51:31.941Z,4.86
2022-10-20T06:52:35.966Z,4.98
2022-10-20T06:53:42.690Z,5.08
2022-10-20T06:54:51.058Z,5.14
2022-10-20T06:55:57.852Z,5.23
2022-10-20T06:57:01.613Z,5.31
2022-10-20T06:58:04.411Z,5.40
2022-10-20T06:59:08.209Z,5.52
2022-10-20T07:00:11.692Z,5.58
2022-10-20T07:01:16.842Z,5.66
2022-10-20T07:02:22.031Z,5.78
2022-10-20T07:03:24.774Z,5.89
2022-10-20T07:04:28.516Z,5.94
2022-10-20T07:05:31.207Z,5.95
2022-10-20T07:06:37.010Z,5.94
2022-10-20T07:07:41.763Z,5.93
2022-10-20T07:08:44.615Z,5.92
2022-10-20T07:09:48.382Z,5.93
2022-10-20T07:11:00.652Z,5.93
2022-10-20T07:12:04.433Z,5.92
2022-10-20T07:13:07.355Z,5.90
2022-10-20T07:14:11.930Z,5.87
2022-10-20T07:15:15.011Z,5.87
2022-10-20T07:16:22.247Z,5.85
2022-10-20T07:17:26.126Z,5.82
2022-10-20T07:18:29.731Z,5.80
2022-10-20T07:19:34.319Z,5.78
2022-10-20T07:20:37.132Z,5.76
2022-10-20T07:21:45.341Z,5.73
2022-10-20T07:22:48.793Z,5.71
2022-10-20T07:23:52.722Z,5.70
2022-10-20T07:24:55.432Z,5.69
2022-10-20T07:26:04.319Z,5.69
2022-10-20T07:27:08.110Z,5.68
2022-10-20T07:28:10.843Z,5.70
2022-10-20T07:29:15.933Z,5.72
2022-10-20T07:30:18.665Z,5.74
2022-10-20T07:31:24.423Z,5.74
2022-10-20T07:32:28.236Z,5.75
2022-10-20T07:33:31.058Z,5.77
2022-10-20T07:34:34.742Z,5.77
2022-10-20T07:35:37.422Z,5.80
2022-10-20T07:36:43.403Z,5.81
2022-10-20T07:37:46.140Z,5.82
2022-10-20T07:38:50.059Z,5.86
2022-10-20T07:39:53.941Z,5.88
2022-10-20T07:41:03.390Z,5.88
2022-10-20T07:42:07.469Z,5.90
2022-10-20T07:43:10.413Z,5.94
2022-10-20T07:44:14.315Z,5.97
2022-10-20T07:45:18.275Z,6.00
2022-10-20T07:46:21.318Z,6.04
2022-10-20T07:47:25.240Z,6.07
2022-10-20T07:48:28.319Z,6.10
2022-10-20T07:49:43.841Z,6.13
2022-10-20T07:50:48.269Z,6.16
2022-10-20T07:51:52.025Z,6.18
2022-10-20T07:52:55.796Z,6.21
2022-10-20T07:54:00.812Z,6.24
2022-10-20T07:55:18.036Z,6.27
2022-10-20T07:56:31.990Z,6.29
2022-10-20T07:57:34.739Z,6.33
2022-10-20T07:58:39.003Z,6.34
2022-10-20T07:59:42.911Z,6.37
2022-10-20T08:00:46.642Z,6.40
2022-10-20T08:01:49.464Z,6.43
2022-10-20T08:02:53.301Z,6.47
2022-10-20T08:03:56.043Z,6.51
2022-10-20T08:04:59.907Z,6.56
2022-10-20T08:06:03.182Z,6.60
2022-10-20T08:07:06.986Z,6.62
2022-10-20T08:08:09.641Z,6.64
2022-10-20T08:09:13.391Z,6.65
2022-10-20T08:10:17.090Z,6.66
2022-10-20T08:11:20.556Z,6.69
2022-10-20T08:12:25.772Z,6.74
2022-10-20T08:13:30.441Z,6.77
2022-10-20T08:14:36.477Z,6.79
2022-10-20T08:15:51.649Z,6.82
2022-10-20T08:16:59.278Z,6.84
2022-10-20T08:18:03.469Z,6.88
2022-10-20T08:19:18.484Z,6.91
2022-10-20T08:20:34.580Z,6.95
2022-10-20T08:21:38.328Z,7.01
2022-10-20T08:22:41.010Z,7.05
2022-10-20T08:23:45.939Z,7.08
2022-10-20T08:24:48.692Z,7.09
2022-10-20T08:25:57.277Z,7.08
2022-10-20T08:27:02.118Z,7.07
2022-10-20T08:28:07.459Z,7.09
2022-10-20T08:29:10.229Z,7.14
2022-10-20T08:30:26.674Z,7.20
2022-10-20T08:31:30.503Z,7.25
2022-10-20T08:32:33.248Z,7.31
2022-10-20T08:33:37.188Z,7.37
2022-10-20T08:34:39.872Z,7.44
2022-10-20T08:35:43.676Z,7.48
2022-10-20T08:36:47.450Z,7.49
2022-10-20T08:37:51.279Z,7.53
2022-10-20T08:38:56.633Z,7.60
2022-10-20T08:40:00.352Z,7.65
2022-10-20T08:41:03.619Z,7.70
2022-10-20T08:42:08.854Z,7.73
2022-10-20T08:43:18.867Z,7.78
2022-10-20T08:44:26.712Z,7.83
2022-10-20T08:45:29.622Z,7.90
2022-10-20T08:46:35.990Z,7.95
2022-10-20T08:47:40.902Z,7.99
2022-10-20T08:48:45.160Z,8.01
2022-10-20T08:49:48.948Z,8.05
2022-10-20T08:50:54.212Z,8.09
2022-10-20T08:51:56.900Z,8.12
2022-10-20T08:53:02.093Z,8.15
2022-10-20T08:54:06.380Z,8.19
2022-10-20T08:55:18.209Z,8.21
2022-10-20T08:56:25.350Z,8.26
2022-10-20T08:57:31.518Z,8.30
2022-10-20T08:58:43.722Z,8.34
2022-10-20T08:59:47.464Z,8.38
2022-10-20T09:00:57.522Z,8.45
2022-10-20T09:02:01.415Z,8.46
2022-10-20T09:03:15.161Z,8.48
2022-10-20T09:04:21.900Z,8.51
2022-10-20T09:05:28.558Z,8.53
2022-10-20T09:06:31.319Z,8.55
2022-10-20T09:07:37.022Z,8.58
2022-10-20T09:08:41.848Z,8.61
2022-10-20T09:09:44.664Z,8.65
2022-10-20T09:10:50.236Z,8.73
2022-10-20T09:11:56.743Z,8.79
2022-10-20T09:13:01.071Z,8.82
2022-10-20T09:14:06.248Z,8.83
2022-10-20T09:15:11.363Z,8.83
2022-10-20T09:16:28.553Z,8.84
2022-10-20T09:17:45.563Z,8.87
2022-10-20T09:18:52.430Z,8.92
2022-10-20T09:19:56.742Z,8.97
2022-10-20T09:21:02.511Z,9.01
2022-10-20T09:22:06.570Z,9.05
2022-10-20T09:23:35.472Z,9.09
2022-10-20T09:24:38.269Z,9.13
2022-10-20T09:25:41.506Z,9.16
2022-10-20T09:26:58.102Z,9.21
2022-10-20T09:28:01.672Z,9.24
2022-10-20T09:29:13.462Z,9.28
2022-10-20T09:30:20.236Z,9.30
2022-10-20T09:31:25.587Z,9.33
2022-10-20T09:32:52.403Z,9.34
2022-10-20T09:33:56.221Z,9.37
2022-10-20T09:35:13.033Z,9.39
2022-10-20T09:36:19.323Z,9.40
2022-10-20T09:37:23.211Z,9.39
2022-10-20T09:38:29.777Z,9.41
2022-10-20T09:39:39.517Z,9.40
2022-10-20T09:40:45.427Z,9.43
2022-10-20T09:41:48.563Z,9.46
2022-10-20T09:42:54.712Z,9.49
2022-10-20T09:44:01.552Z,9.51
2022-10-20T09:45:13.355Z,9.53
2022-10-20T09:46:20.832Z,9.57
2022-10-20T09:47:23.922Z,9.60
2022-10-20T09:48:29.854Z,9.64
2022-10-20T09:49:36.409Z,9.67
2022-10-20T09:50:41.141Z,9.69
2022-10-20T09:51:48.985Z,9.70
2022-10-20T09:52:51.902Z,9.71
2022-10-20T09:53:59.170Z,9.73
2022-10-20T09:55:04.083Z,9.74
2022-10-20T09:56:08.586Z,9.77
2022-10-20T09:57:18.838Z,9.81
2022-10-20T09:58:26.081Z,9.85
2022-10-20T09:59:34.735Z,9.91
2022-10-20T10:00:45.148Z,9.98
2022-10-20T10:01:56.684Z,10.03
2022-10-20T10:03:11.467Z,10.08
2022-10-20T10:04:32.292Z,10.12
2022-10-20T10:05:35.092Z,10.14
2022-10-20T10:06:46.451Z,10.18
2022-10-20T10:08:00.274Z,10.22
2022-10-20T10:09:04.253Z,10.23
2022-10-20T10:10:11.490Z,10.26
2022-10-20T10:11:18.509Z,10.29
2022-10-20T10:12:21.291Z,10.32
2022-10-20T10:13:27.348Z,10.34
2022-10-20T10:14:33.421Z,10.36
2022-10-20T10:15:39.187Z,10.38
2022-10-20T10:16:43.763Z,10.42
2022-10-20T10:17:46.462Z,10.46
2022-10-20T10:18:57.550Z,10.49
2022-10-20T10:20:06.299Z,10.50
2022-10-20T10:21:11.268Z,10.50
2022-10-20T10:22:15.201Z,10.51
2022-10-20T10:23:21.321Z,10.51
2022-10-20T10:24:42.331Z,10.52
2022-10-20T10:25:45.034Z,10.52
2022-10-20T10:26:54.767Z,10.54
2022-10-20T10:27:59.722Z,10.58
2022-10-20T10:29:04.025Z,10.63
2022-10-20T10:30:28.793Z,10.68
2022-10-20T10:31:34.947Z,10.69
2022-10-20T10:32:45.124Z,10.70
2022-10-20T10:33:49.037Z,10.74
2022-10-20T10:35:14.371Z,10.75
2022-10-20T10:36:26.381Z,10.75
2022-10-20T10:37:33.884Z,10.76
2022-10-20T10:38:38.160Z,10.77
2022-10-20T10:39:42.129Z,10.77
2022-10-20T10:40:53.741Z,10.85
2022-10-20T10:42:09.270Z,10.87
2022-10-20T10:43:30.782Z,10.92
2022-10-20T10:44:43.493Z,10.94
2022-10-20T10:45:51.860Z,10.94
2022-10-20T10:47:04.754Z,10.94
2022-10-20T10:48:21.102Z,10.95
2022-10-20T10:49:51.534Z,10.95
2022-10-20T10:50:58.162Z,10.95
2022-10-20T10:52:10.702Z,10.97
2022-10-20T10:53:25.640Z,11.01
2022-10-20T10:54:42.418Z,11.05
2022-10-20T10:55:50.776Z,11.10
2022-10-20T10:56:58.712Z,11.17
2022-10-20T10:58:07.958Z,11.24
2022-10-20T10:59:13.453Z,11.28
2022-10-20T11:00:21.009Z,11.31
2022-10-20T11:01:36.262Z,11.34
2022-10-20T11:03:17.010Z,11.36
2022-10-20T11:04:38.105Z,11.38
2022-10-20T11:05:53.287Z,11.40
2022-10-20T11:07:00.064Z,11.42
2022-10-20T11:08:11.232Z,11.44
2022-10-20T11:09:24.652Z,11.45
2022-10-20T11:10:33.447Z,11.46
2022-10-20T11:11:45.469Z,11.48
2022-10-20T11:13:10.490Z,11.57
2022-10-20T11:14:20.336Z,11.62
2022-10-20T11:15:32.655Z,11.65
2022-10-20T11:16:40.807Z,11.67
2022-10-20T11:17:52.872Z,11.69
2022-10-20T11:19:21.100Z,11.72
2022-10-20T11:20:32.020Z,11.76
2022-10-20T11:21:42.201Z,11.83
2022-10-20T11:22:55.530Z,11.90
2022-10-20T11:24:14.534Z,11.94
2022-10-20T11:25:29.401Z,11.95
2022-10-20T11:26:35.297Z,11.97
2022-10-20T11:27:39.850Z,11.95
2022-10-20T11:28:45.090Z,11.95
2022-10-20T11:29:51.600Z,11.98
2022-10-20T11:30:54.714Z,11.98
2022-10-20T11:32:05.247Z,11.98
2022-10-20T11:33:15.491Z,12.02
2022-10-20T11:34:24.864Z,12.05
2022-10-20T11:35:36.102Z,12.09
2022-10-20T11:36:43.327Z,12.09
2022-10-20T11:37:51.011Z,12.10
2022-10-20T11:38:55.743Z,12.14
2022-10-20T11:40:07.791Z,12.12
2022-10-20T11:41:17.273Z,12.13
2022-10-20T11:42:26.838Z,12.16
2022-10-20T11:43:34.811Z,12.18
2022-10-20T11:44:40.699Z,12.18
2022-10-20T11:45:49.239Z,12.20
2022-10-20T11:46:55.712Z,12.21
2022-10-20T11:48:05.331Z,12.19
2022-10-20T11:49:13.549Z,12.13
2022-10-20T11:50:18.476Z,12.12
2022-10-20T11:51:40.562Z,12.10
2022-10-20T11:53:00.812Z,12.07
2022-10-20T11:54:31.969Z,12.08
2022-10-20T11:55:54.192Z,12.14
2022-10-20T11:57:15.301Z,12.20
2022-10-20T11:58:36.003Z,12.25
2022-10-20T12:00:06.480Z,12.31
2022-10-20T12:01:29.136Z,12.32
2022-10-20T12:02:56.667Z,12.37
2022-10-20T12:04:23.002Z,12.46
2022-10-20T12:05:45.965Z,12.54
2022-10-20T12:07:06.918Z,12.59
2022-10-20T12:08:29.905Z,12.62
2022-10-20T12:09:49.573Z,12.64
2022-10-20T12:10:56.706Z,12.63
2022-10-20T12:12:03.638Z,12.64
2022-10-20T12:13:18.437Z,12.62
2022-10-20T12:14:27.551Z,12.64
2022-10-20T12:15:31.367Z,12.66
2022-10-20T12:17:20.601Z,12.66
2022-10-20T12:18:28.151Z,12.66
2022-10-20T12:19:32.402Z,12.65
2022-10-20T12:20:55.425Z,12.67
2022-10-20T12:22:01.328Z,12.66
2022-10-20T12:23:04.181Z,12.64
2022-10-20T12:24:31.260Z,12.60
2022-10-20T12:25:42.606Z,12.59
2022-10-20T12:27:17.703Z,12.62
2022-10-20T12:28:48.083Z,12.63
2022-10-20T12:30:01.624Z,12.69
2022-10-20T12:31:06.514Z,12.75
2022-10-20T12:32:46.575Z,12.82
2022-10-20T12:34:05.170Z,12.93
2022-10-20T12:35:30.145Z,13.01
2022-10-20T12:36:36.652Z,13.11
2022-10-20T12:37:42.217Z,13.20
2022-10-20T12:38:52.306Z,13.37
2022-10-20T12:39:56.761Z,13.53
2022-10-20T12:41:02.061Z,13.67
2022-10-20T12:42:08.489Z,13.88
2022-10-20T12:43:23.939Z,14.19
2022-10-20T12:44:29.504Z,14.43
2022-10-20T12:45:37.793Z,14.70
2022-10-20T12:46:44.708Z,14.99
2022-10-20T12:47:49.613Z,15.28
2022-10-20T12:49:00.311Z,15.51
2022-10-20T12:50:08.061Z,15.64
2022-10-20T12:51:19.932Z,15.77
2022-10-20T12:52:30.100Z,15.91
2022-10-20T12:53:33.330Z,16.06
2022-10-20T12:54:40.120Z,16.17
2022-10-20T12:55:45.600Z,16.32
2022-10-20T12:56:50.565Z,16.33
2022-10-20T12:58:12.090Z,16.27
2022-10-20T12:59:39.561Z,16.36
2022-10-20T13:01:02.817Z,16.37
2022-10-20T13:02:50.389Z,16.37
2022-10-20T13:03:53.263Z,16.39
2022-10-20T13:04:59.080Z,16.51
2022-10-20T13:06:03.464Z,16.65
2022-10-20T13:07:09.347Z,16.76
2022-10-20T13:08:30.376Z,16.88
2022-10-20T13:10:00.309Z,17.06
2022-10-20T13:11:46.300Z,17.19
2022-10-20T13:12:50.140Z,17.27
2022-10-20T13:14:01.466Z,17.36
2022-10-20T13:15:13.140Z,17.44
2022-10-20T13:16:20.497Z,17.51
2022-10-20T13:17:27.891Z,17.53
2022-10-20T13:18:34.051Z,17.57
2022-10-20T13:19:44.326Z,17.59
2022-10-20T13:20:51.570Z,17.50
2022-10-20T13:21:55.281Z,17.44
2022-10-20T13:24:15.551Z,17.29
2022-10-20T13:25:35.053Z,17.35
2022-10-20T13:26:39.691Z,17.36
2022-10-20T13:27:43.322Z,17.44
2022-10-20T13:28:48.443Z,17.55
2022-10-20T13:29:52.680Z,17.51
2022-10-20T13:31:02.910Z,17.45
2022-10-20T13:32:16.235Z,17.40
2022-10-20T13:33:34.382Z,17.32
2022-10-20T13:34:52.269Z,17.33
2022-10-20T13:36:00.081Z,17.25
2022-10-20T13:37:14.005Z,17.11
2022-10-20T13:38:21.511Z,16.90
2022-10-20T13:39:32.178Z,16.66
2022-10-20T13:40:43.540Z,16.43
2022-10-20T13:41:50.396Z,16.19
2022-10-20T13:43:02.959Z,15.95
2022-10-20T13:44:12.478Z,15.69
2022-10-20T13:45:24.828Z,15.41
2022-10-20T13:46:38.891Z,15.17
2022-10-20T13:47:50.949Z,14.96
2022-10-20T13:49:13.043Z,14.76
2022-10-20T13:51:27.281Z,14.46
2022-10-20T13:52:32.381Z,14.32
2022-10-20T13:53:39.837Z,14.16
2022-10-20T13:54:46.674Z,13.97
2022-10-20T13:55:57.331Z,13.78
2022-10-20T13:57:00.550Z,13.64
2022-10-20T13:58:09.310Z,13.53
2022-10-20T14:00:34.076Z,13.39
2022-10-20T14:01:37.366Z,13.33
2022-10-20T14:02:41.515Z,13.23
2022-10-20T14:03:46.650Z,13.12
2022-10-20T14:04:53.752Z,13.03
2022-10-20T14:05:59.462Z,12.97
2022-10-20T14:07:08.658Z,12.92
2022-10-20T14:08:16.420Z,12.84
2022-10-20T14:09:22.911Z,12.81
2022-10-20T14:10:41.900Z,12.79
2022-10-20T14:11:50.628Z,12.75
2022-10-20T14:12:56.704Z,12.75
2022-10-20T14:14:01.312Z,12.72
2022-10-20T14:15:05.301Z,12.70
2022-10-20T14:16:19.387Z,12.67
2022-10-20T14:17:23.993Z,12.60
2022-10-20T14:18:29.601Z,12.54
2022-10-20T14:19:33.855Z,12.51
2022-10-20T14:20:37.993Z,12.52
2022-10-20T14:21:42.459Z,12.56
2022-10-20T14:22:45.674Z,12.68
2022-10-20T14:23:50.969Z,12.86
2022-10-20T14:24:55.514Z,13.10
2022-10-20T14:26:01.109Z,13.33
2022-10-20T14:27:05.189Z,13.56
2022-10-20T14:28:12.932Z,13.78
2022-10-20T14:29:17.999Z,13.95
2022-10-20T14:30:22.392Z,14.14
2022-10-20T14:31:25.596Z,14.32
2022-10-20T14:32:31.553Z,14.38
2022-10-20T14:33:45.132Z,14.27
2022-10-20T14:34:56.271Z,14.20
2022-10-20T14:36:02.843Z,14.16
2022-10-20T14:37:07.969Z,14.15
2022-10-20T14:38:18.716Z,14.02
2022-10-20T14:39:26.318Z,13.85
2022-10-20T14:40:32.425Z,13.69
2022-10-20T14:41:38.209Z,13.54
2022-10-20T14:42:44.840Z,13.50